sensor_id;sensor_type;location;lat;lon;timestamp;temperature;humidity
41882;DHT22;27562;47.524;12.404;2022-08-01T00:00:21;17.10;99.90
41882;DHT22;27562;47.524;12.404;2022-08-01T00:02:46;17.10;99.90
41882;DHT22;27562;47.524;12.404;2022-08-01T00:05:12;17.10;99.90
41882;DHT22;27562;47.524;12.404;2022-08-01T00:07:38;17.10;99.90
41882;DHT22;27562;47.524;12.404;2022-08-01T00:10:04;17.00;99.90
41882;DHT22;27562;47.524;12.404;2022-08-01T00:12:30;17.00;99.90
41882;DHT22;27562;47.524;12.404;2022-08-01T00:14:55;16.90;99.90
41882;DHT22;27562;47.524;12.404;2022-08-01T00:17:21;16.80;99.90
41882;DHT22;27562;47.524;12.404;2022-08-01T00:19:46;16.70;99.90
41882;DHT22;27562;47.524;12.404;2022-08-01T00:22:12;16.60;99.90
41882;DHT22;27562;47.524;12.404;2022-08-01T00:24:37;16.60;99.90
41882;DHT22;27562;47.524;12.404;2022-08-01T00:27:03;16.60;99.90
41882;DHT22;27562;47.524;12.404;2022-08-01T00:29:29;16.70;99.90
41882;DHT22;27562;47.524;12.404;2022-08-01T00:31:54;16.70;99.90
41882;DHT22;27562;47.524;12.404;2022-08-01T00:34:20;16.70;99.90
41882;DHT22;27562;47.524;12.404;2022-08-01T00:36:45;16.60;99.90
41882;DHT22;27562;47.524;12.404;2022-08-01T00:39:12;16.60;99.90
41882;DHT22;27562;47.524;12.404;2022-08-01T00:41:37;16.50;99.90
41882;DHT22;27562;47.524;12.404;2022-08-01T00:44:03;16.40;99.90
41882;DHT22;27562;47.524;12.404;2022-08-01T00:46:29;16.30;99.90
41882;DHT22;27562;47.524;12.404;2022-08-01T00:48:55;16.30;99.90
41882;DHT22;27562;47.524;12.404;2022-08-01T00:51:20;16.30;99.90
41882;DHT22;27562;47.524;12.404;2022-08-01T00:53:47;16.20;99.90
41882;DHT22;27562;47.524;12.404;2022-08-01T00:56:13;16.20;99.90
41882;DHT22;27562;47.524;12.404;2022-08-01T00:58:38;16.20;99.90
41882;DHT22;27562;47.524;12.404;2022-08-01T01:01:04;16.10;99.90
41882;DHT22;27562;47.524;12.404;2022-08-01T01:03:29;16.10;99.90
41882;DHT22;27562;47.524;12.404;2022-08-01T01:06:12;16.10;99.90
41882;DHT22;27562;47.524;12.404;2022-08-01T01:08:55;16.10;99.90
41882;DHT22;27562;47.524;12.404;2022-08-01T01:11:28;16.10;99.90
41882;DHT22;27562;47.524;12.404;2022-08-01T01:14:02;16.10;99.90
41882;DHT22;27562;47.524;12.404;2022-08-01T01:16:29;16.10;99.90
41882;DHT22;27562;47.524;12.404;2022-08-01T01:18:57;16.20;99.90
41882;DHT22;27562;47.524;12.404;2022-08-01T01:21:30;16.20;99.90
41882;DHT22;27562;47.524;12.404;2022-08-01T01:31:36;16.20;99.90
41882;DHT22;27562;47.524;12.404;2022-08-01T01:34:03;16.20;99.90
41882;DHT22;27562;47.524;12.404;2022-08-01T01:36:29;16.20;99.90
41882;DHT22;27562;47.524;12.404;2022-08-01T01:38:56;16.20;99.90
41882;DHT22;27562;47.524;12.404;2022-08-01T01:41:22;16.20;99.90
41882;DHT22;27562;47.524;12.404;2022-08-01T01:43:49;16.20;99.90
41882;DHT22;27562;47.524;12.404;2022-08-01T01:46:17;16.20;99.90
41882;DHT22;27562;47.524;12.404;2022-08-01T01:48:44;16.20;99.90
41882;DHT22;27562;47.524;12.404;2022-08-01T01:51:10;16.20;99.90
41882;DHT22;27562;47.524;12.404;2022-08-01T01:53:37;16.10;99.90
41882;DHT22;27562;47.524;12.404;2022-08-01T01:56:03;16.10;99.90
41882;DHT22;27562;47.524;12.404;2022-08-01T01:58:29;16.00;99.90
41882;DHT22;27562;47.524;12.404;2022-08-01T02:00:57;15.90;99.90
41882;DHT22;27562;47.524;12.404;2022-08-01T02:03:23;15.80;99.90
41882;DHT22;27562;47.524;12.404;2022-08-01T02:05:50;15.80;99.90
41882;DHT22;27562;47.524;12.404;2022-08-01T02:08:17;15.80;99.90
41882;DHT22;27562;47.524;12.404;2022-08-01T02:10:44;15.80;99.90
41882;DHT22;27562;47.524;12.404;2022-08-01T02:13:30;15.80;99.90
41882;DHT22;27562;47.524;12.404;2022-08-01T02:15:56;15.80;99.90
41882;DHT22;27562;47.524;12.404;2022-08-01T02:18:23;15.80;99.90
41882;DHT22;27562;47.524;12.404;2022-08-01T02:20:48;15.80;99.90
41882;DHT22;27562;47.524;12.404;2022-08-01T02:23:16;15.90;99.90
41882;DHT22;27562;47.524;12.404;2022-08-01T02:25:46;15.80;99.90
41882;DHT22;27562;47.524;12.404;2022-08-01T02:28:13;15.80;99.90
41882;DHT22;27562;47.524;12.404;2022-08-01T02:30:42;15.80;99.90
41882;DHT22;27562;47.524;12.404;2022-08-01T02:33:12;15.70;99.90
41882;DHT22;27562;47.524;12.404;2022-08-01T02:35:41;15.70;99.90
41882;DHT22;27562;47.524;12.404;2022-08-01T02:38:08;15.60;99.90
41882;DHT22;27562;47.524;12.404;2022-08-01T02:40:34;15.50;99.90
41882;DHT22;27562;47.524;12.404;2022-08-01T02:43:03;15.40;99.90
41882;DHT22;27562;47.524;12.404;2022-08-01T02:45:28;15.30;99.90
41882;DHT22;27562;47.524;12.404;2022-08-01T02:47:57;15.30;99.90
41882;DHT22;27562;47.524;12.404;2022-08-01T02:50:23;15.30;99.90
41882;DHT22;27562;47.524;12.404;2022-08-01T02:52:49;15.30;99.90
41882;DHT22;27562;47.524;12.404;2022-08-01T02:55:16;15.30;99.90
41882;DHT22;27562;47.524;12.404;2022-08-01T02:57:42;15.30;99.90
41882;DHT22;27562;47.524;12.404;2022-08-01T03:00:09;15.40;99.90
41882;DHT22;27562;47.524;12.404;2022-08-01T03:02:35;15.30;99.90
41882;DHT22;27562;47.524;12.404;2022-08-01T03:05:01;15.40;99.90
41882;DHT22;27562;47.524;12.404;2022-08-01T03:07:27;15.40;99.90
41882;DHT22;27562;47.524;12.404;2022-08-01T03:09:55;15.30;99.90
41882;DHT22;27562;47.524;12.404;2022-08-01T03:12:22;15.30;99.90
41882;DHT22;27562;47.524;12.404;2022-08-01T03:14:49;15.20;99.90
41882;DHT22;27562;47.524;12.404;2022-08-01T03:17:17;15.20;99.90
41882;DHT22;27562;47.524;12.404;2022-08-01T03:19:43;15.20;99.90
41882;DHT22;27562;47.524;12.404;2022-08-01T03:22:11;15.20;99.90
41882;DHT22;27562;47.524;12.404;2022-08-01T03:24:38;15.10;99.90
41882;DHT22;27562;47.524;12.404;2022-08-01T03:27:04;15.10;99.90
41882;DHT22;27562;47.524;12.404;2022-08-01T03:29:31;15.00;99.90
41882;DHT22;27562;47.524;12.404;2022-08-01T03:31:58;15.00;99.90
41882;DHT22;27562;47.524;12.404;2022-08-01T03:34:25;15.10;99.90
41882;DHT22;27562;47.524;12.404;2022-08-01T03:37:02;15.10;99.90
41882;DHT22;27562;47.524;12.404;2022-08-01T03:39:30;15.20;99.90
41882;DHT22;27562;47.524;12.404;2022-08-01T03:41:58;15.20;99.90
41882;DHT22;27562;47.524;12.404;2022-08-01T03:44:26;15.20;99.90
41882;DHT22;27562;47.524;12.404;2022-08-01T03:47:02;15.20;99.90
41882;DHT22;27562;47.524;12.404;2022-08-01T03:49:30;15.20;99.90
41882;DHT22;27562;47.524;12.404;2022-08-01T03:51:56;15.20;99.90
41882;DHT22;27562;47.524;12.404;2022-08-01T03:54:23;15.20;99.90
41882;DHT22;27562;47.524;12.404;2022-08-01T03:56:49;15.20;99.90
41882;DHT22;27562;47.524;12.404;2022-08-01T03:59:16;15.20;99.90
41882;DHT22;27562;47.524;12.404;2022-08-01T04:01:43;15.20;99.90
41882;DHT22;27562;47.524;12.404;2022-08-01T04:04:09;15.20;99.90
41882;DHT22;27562;47.524;12.404;2022-08-01T04:06:37;15.20;99.90
41882;DHT22;27562;47.524;12.404;2022-08-01T04:09:03;15.20;99.90
41882;DHT22;27562;47.524;12.404;2022-08-01T04:11:28;15.10;99.90
41882;DHT22;27562;47.524;12.404;2022-08-01T04:13:54;15.10;99.90
41882;DHT22;27562;47.524;12.404;2022-08-01T04:16:20;15.10;99.90
41882;DHT22;27562;47.524;12.404;2022-08-01T04:18:46;15.10;99.90
41882;DHT22;27562;47.524;12.404;2022-08-01T04:21:11;15.10;99.90
41882;DHT22;27562;47.524;12.404;2022-08-01T04:23:37;15.20;99.90
41882;DHT22;27562;47.524;12.404;2022-08-01T04:26:03;15.20;99.90
41882;DHT22;27562;47.524;12.404;2022-08-01T04:28:30;15.20;99.90
41882;DHT22;27562;47.524;12.404;2022-08-01T04:30:55;15.20;99.90
41882;DHT22;27562;47.524;12.404;2022-08-01T04:33:22;15.20;99.90
41882;DHT22;27562;47.524;12.404;2022-08-01T04:35:48;15.30;99.90
41882;DHT22;27562;47.524;12.404;2022-08-01T04:38:20;15.30;99.90
41882;DHT22;27562;47.524;12.404;2022-08-01T04:40:47;15.30;99.90
41882;DHT22;27562;47.524;12.404;2022-08-01T04:43:13;15.30;99.90
41882;DHT22;27562;47.524;12.404;2022-08-01T04:45:39;15.30;99.90
41882;DHT22;27562;47.524;12.404;2022-08-01T04:48:05;15.30;99.90
41882;DHT22;27562;47.524;12.404;2022-08-01T04:50:34;15.30;99.90
41882;DHT22;27562;47.524;12.404;2022-08-01T04:53:00;15.30;99.90
41882;DHT22;27562;47.524;12.404;2022-08-01T04:55:28;15.30;99.90
41882;DHT22;27562;47.524;12.404;2022-08-01T04:57:53;15.30;99.90
41882;DHT22;27562;47.524;12.404;2022-08-01T05:00:19;15.20;99.90
41882;DHT22;27562;47.524;12.404;2022-08-01T05:02:44;15.20;99.90
41882;DHT22;27562;47.524;12.404;2022-08-01T05:05:11;15.30;99.90
41882;DHT22;27562;47.524;12.404;2022-08-01T05:07:37;15.20;99.90
41882;DHT22;27562;47.524;12.404;2022-08-01T05:10:05;15.30;99.90
41882;DHT22;27562;47.524;12.404;2022-08-01T05:12:31;15.30;99.90
41882;DHT22;27562;47.524;12.404;2022-08-01T05:14:57;15.30;99.90
41882;DHT22;27562;47.524;12.404;2022-08-01T05:17:23;15.40;99.90
41882;DHT22;27562;47.524;12.404;2022-08-01T05:19:48;15.40;99.90
41882;DHT22;27562;47.524;12.404;2022-08-01T05:22:14;15.50;99.90
41882;DHT22;27562;47.524;12.404;2022-08-01T05:24:39;15.50;99.90
41882;DHT22;27562;47.524;12.404;2022-08-01T05:27:05;15.50;99.90
41882;DHT22;27562;47.524;12.404;2022-08-01T05:29:33;15.50;99.90
41882;DHT22;27562;47.524;12.404;2022-08-01T05:31:58;15.50;99.90
41882;DHT22;27562;47.524;12.404;2022-08-01T05:34:24;15.50;99.90
41882;DHT22;27562;47.524;12.404;2022-08-01T05:36:49;15.60;99.90
41882;DHT22;27562;47.524;12.404;2022-08-01T05:39:15;15.60;99.90
41882;DHT22;27562;47.524;12.404;2022-08-01T05:41:41;15.60;99.90
41882;DHT22;27562;47.524;12.404;2022-08-01T05:44:06;15.60;99.90
41882;DHT22;27562;47.524;12.404;2022-08-01T05:46:32;15.70;99.90
41882;DHT22;27562;47.524;12.404;2022-08-01T05:48:59;15.70;99.90
41882;DHT22;27562;47.524;12.404;2022-08-01T05:51:24;15.80;99.90
41882;DHT22;27562;47.524;12.404;2022-08-01T05:53:51;15.80;99.90
41882;DHT22;27562;47.524;12.404;2022-08-01T05:56:16;15.80;99.90
41882;DHT22;27562;47.524;12.404;2022-08-01T05:58:42;15.80;99.90
41882;DHT22;27562;47.524;12.404;2022-08-01T06:01:08;15.80;99.90
41882;DHT22;27562;47.524;12.404;2022-08-01T06:03:34;15.90;99.90
41882;DHT22;27562;47.524;12.404;2022-08-01T06:05:59;15.90;99.90
41882;DHT22;27562;47.524;12.404;2022-08-01T06:08:25;15.80;99.90
41882;DHT22;27562;47.524;12.404;2022-08-01T06:10:50;15.80;99.90
41882;DHT22;27562;47.524;12.404;2022-08-01T06:13:16;15.80;99.90
41882;DHT22;27562;47.524;12.404;2022-08-01T06:15:42;15.90;99.90
41882;DHT22;27562;47.524;12.404;2022-08-01T06:18:07;15.90;99.90
41882;DHT22;27562;47.524;12.404;2022-08-01T06:20:33;15.90;99.90
41882;DHT22;27562;47.524;12.404;2022-08-01T06:22:58;16.00;99.90
41882;DHT22;27562;47.524;12.404;2022-08-01T06:25:24;16.10;99.90
41882;DHT22;27562;47.524;12.404;2022-08-01T06:27:49;16.10;99.90
41882;DHT22;27562;47.524;12.404;2022-08-01T06:30:15;16.20;99.90
41882;DHT22;27562;47.524;12.404;2022-08-01T06:32:40;16.30;99.90
41882;DHT22;27562;47.524;12.404;2022-08-01T06:35:06;16.40;99.90
41882;DHT22;27562;47.524;12.404;2022-08-01T06:37:32;16.50;99.90
41882;DHT22;27562;47.524;12.404;2022-08-01T06:40:04;16.60;99.90
41882;DHT22;27562;47.524;12.404;2022-08-01T06:42:30;16.70;99.90
41882;DHT22;27562;47.524;12.404;2022-08-01T06:45:04;16.80;99.90
41882;DHT22;27562;47.524;12.404;2022-08-01T06:47:29;16.90;99.90
41882;DHT22;27562;47.524;12.404;2022-08-01T06:49:55;17.00;99.90
41882;DHT22;27562;47.524;12.404;2022-08-01T06:52:20;17.00;99.90
41882;DHT22;27562;47.524;12.404;2022-08-01T06:54:46;17.20;99.90
41882;DHT22;27562;47.524;12.404;2022-08-01T06:57:11;17.30;99.90
41882;DHT22;27562;47.524;12.404;2022-08-01T06:59:37;17.30;99.90
41882;DHT22;27562;47.524;12.404;2022-08-01T07:02:03;17.40;99.90
41882;DHT22;27562;47.524;12.404;2022-08-01T07:04:28;17.50;99.90
41882;DHT22;27562;47.524;12.404;2022-08-01T07:06:54;17.60;99.90
41882;DHT22;27562;47.524;12.404;2022-08-01T07:09:19;17.80;99.90
41882;DHT22;27562;47.524;12.404;2022-08-01T07:11:45;17.90;99.90
41882;DHT22;27562;47.524;12.404;2022-08-01T07:14:10;18.00;99.90
41882;DHT22;27562;47.524;12.404;2022-08-01T07:16:36;18.10;99.90
41882;DHT22;27562;47.524;12.404;2022-08-01T07:19:01;18.20;99.90
41882;DHT22;27562;47.524;12.404;2022-08-01T07:21:27;18.30;99.90
41882;DHT22;27562;47.524;12.404;2022-08-01T07:23:52;18.40;99.90
41882;DHT22;27562;47.524;12.404;2022-08-01T07:26:18;18.50;99.90
41882;DHT22;27562;47.524;12.404;2022-08-01T07:28:44;18.60;99.90
41882;DHT22;27562;47.524;12.404;2022-08-01T07:31:09;18.70;99.90
41882;DHT22;27562;47.524;12.404;2022-08-01T07:33:35;18.80;99.90
41882;DHT22;27562;47.524;12.404;2022-08-01T07:36:00;19.00;99.90
41882;DHT22;27562;47.524;12.404;2022-08-01T07:38:26;19.10;99.90
41882;DHT22;27562;47.524;12.404;2022-08-01T07:40:52;19.20;99.90
41882;DHT22;27562;47.524;12.404;2022-08-01T07:43:17;19.40;99.90
41882;DHT22;27562;47.524;12.404;2022-08-01T07:45:43;19.50;99.90
41882;DHT22;27562;47.524;12.404;2022-08-01T07:48:08;19.70;99.90
41882;DHT22;27562;47.524;12.404;2022-08-01T07:50:34;19.90;99.90
41882;DHT22;27562;47.524;12.404;2022-08-01T07:52:59;20.00;99.90
41882;DHT22;27562;47.524;12.404;2022-08-01T07:55:25;20.20;99.90
41882;DHT22;27562;47.524;12.404;2022-08-01T07:57:51;20.30;99.90
41882;DHT22;27562;47.524;12.404;2022-08-01T08:00:17;20.50;99.90
41882;DHT22;27562;47.524;12.404;2022-08-01T08:02:43;20.60;99.90
41882;DHT22;27562;47.524;12.404;2022-08-01T08:05:10;20.90;99.90
41882;DHT22;27562;47.524;12.404;2022-08-01T08:07:36;21.00;99.90
41882;DHT22;27562;47.524;12.404;2022-08-01T08:10:01;21.20;99.90
41882;DHT22;27562;47.524;12.404;2022-08-01T08:12:27;21.40;99.90
41882;DHT22;27562;47.524;12.404;2022-08-01T08:14:53;21.60;99.90
41882;DHT22;27562;47.524;12.404;2022-08-01T08:17:18;21.70;99.90
41882;DHT22;27562;47.524;12.404;2022-08-01T08:19:44;21.90;99.90
41882;DHT22;27562;47.524;12.404;2022-08-01T08:22:10;22.10;99.90
41882;DHT22;27562;47.524;12.404;2022-08-01T08:24:36;22.20;99.90
41882;DHT22;27562;47.524;12.404;2022-08-01T08:27:02;22.20;99.90
41882;DHT22;27562;47.524;12.404;2022-08-01T08:29:29;22.40;99.90
41882;DHT22;27562;47.524;12.404;2022-08-01T08:31:55;22.50;99.90
41882;DHT22;27562;47.524;12.404;2022-08-01T08:34:21;22.70;99.90
41882;DHT22;27562;47.524;12.404;2022-08-01T08:36:47;22.80;99.90
41882;DHT22;27562;47.524;12.404;2022-08-01T08:39:12;23.00;99.90
41882;DHT22;27562;47.524;12.404;2022-08-01T08:41:38;23.20;99.90
41882;DHT22;27562;47.524;12.404;2022-08-01T08:44:04;23.40;99.90
41882;DHT22;27562;47.524;12.404;2022-08-01T08:46:31;23.50;99.90
41882;DHT22;27562;47.524;12.404;2022-08-01T08:48:58;23.70;99.90
41882;DHT22;27562;47.524;12.404;2022-08-01T08:51:24;23.90;99.90
41882;DHT22;27562;47.524;12.404;2022-08-01T08:53:51;24.00;99.90
41882;DHT22;27562;47.524;12.404;2022-08-01T08:56:19;24.10;99.60
41882;DHT22;27562;47.524;12.404;2022-08-01T08:58:45;24.20;99.90
41882;DHT22;27562;47.524;12.404;2022-08-01T09:01:11;24.20;98.90
41882;DHT22;27562;47.524;12.404;2022-08-01T09:03:38;24.30;97.70
41882;DHT22;27562;47.524;12.404;2022-08-01T09:06:03;24.40;96.10
41882;DHT22;27562;47.524;12.404;2022-08-01T09:08:29;24.50;96.40
41882;DHT22;27562;47.524;12.404;2022-08-01T09:10:55;24.50;95.10
41882;DHT22;27562;47.524;12.404;2022-08-01T09:13:20;24.60;94.30
41882;DHT22;27562;47.524;12.404;2022-08-01T09:15:50;24.70;93.60
41882;DHT22;27562;47.524;12.404;2022-08-01T09:20:51;24.90;92.90
41882;DHT22;27562;47.524;12.404;2022-08-01T09:23:36;25.00;91.80
41882;DHT22;27562;47.524;12.404;2022-08-01T09:26:05;25.20;91.60
41882;DHT22;27562;47.524;12.404;2022-08-01T09:28:31;25.30;91.10
41882;DHT22;27562;47.524;12.404;2022-08-01T09:30:57;25.50;91.60
41882;DHT22;27562;47.524;12.404;2022-08-01T09:33:22;25.70;89.80
41882;DHT22;27562;47.524;12.404;2022-08-01T09:35:55;25.80;89.70
41882;DHT22;27562;47.524;12.404;2022-08-01T09:38:21;25.80;88.50
41882;DHT22;27562;47.524;12.404;2022-08-01T09:40:54;25.80;89.60
41882;DHT22;27562;47.524;12.404;2022-08-01T09:43:20;25.90;91.00
41882;DHT22;27562;47.524;12.404;2022-08-01T09:45:46;26.00;88.90
41882;DHT22;27562;47.524;12.404;2022-08-01T09:48:12;26.10;87.10
41882;DHT22;27562;47.524;12.404;2022-08-01T09:50:41;26.10;87.80
41882;DHT22;27562;47.524;12.404;2022-08-01T09:53:07;26.10;82.80
41882;DHT22;27562;47.524;12.404;2022-08-01T09:55:33;26.10;85.60
41882;DHT22;27562;47.524;12.404;2022-08-01T09:57:59;26.20;86.10
41882;DHT22;27562;47.524;12.404;2022-08-01T10:00:26;26.40;82.90
41882;DHT22;27562;47.524;12.404;2022-08-01T10:02:52;26.50;82.30
41882;DHT22;27562;47.524;12.404;2022-08-01T10:05:18;26.60;83.10
41882;DHT22;27562;47.524;12.404;2022-08-01T10:07:55;26.80;82.40
41882;DHT22;27562;47.524;12.404;2022-08-01T10:10:21;26.70;82.00
41882;DHT22;27562;47.524;12.404;2022-08-01T10:12:47;26.80;79.30
41882;DHT22;27562;47.524;12.404;2022-08-01T10:15:16;26.80;80.30
41882;DHT22;27562;47.524;12.404;2022-08-01T10:17:44;27.00;79.10
41882;DHT22;27562;47.524;12.404;2022-08-01T10:20:11;27.10;79.90
41882;DHT22;27562;47.524;12.404;2022-08-01T10:22:37;27.00;77.50
41882;DHT22;27562;47.524;12.404;2022-08-01T10:25:03;27.10;77.10
41882;DHT22;27562;47.524;12.404;2022-08-01T10:27:29;27.10;77.70
41882;DHT22;27562;47.524;12.404;2022-08-01T10:29:58;27.20;76.90
41882;DHT22;27562;47.524;12.404;2022-08-01T10:32:32;27.30;78.20
41882;DHT22;27562;47.524;12.404;2022-08-01T10:34:58;27.50;79.30
41882;DHT22;27562;47.524;12.404;2022-08-01T10:37:24;27.70;75.60
41882;DHT22;27562;47.524;12.404;2022-08-01T10:39:53;27.80;75.90
41882;DHT22;27562;47.524;12.404;2022-08-01T10:42:19;27.80;75.20
41882;DHT22;27562;47.524;12.404;2022-08-01T10:44:45;27.80;75.80
41882;DHT22;27562;47.524;12.404;2022-08-01T10:47:17;27.80;75.00
41882;DHT22;27562;47.524;12.404;2022-08-01T10:49:45;27.90;72.80
41882;DHT22;27562;47.524;12.404;2022-08-01T10:52:18;28.00;75.60
41882;DHT22;27562;47.524;12.404;2022-08-01T10:54:44;28.00;74.60
41882;DHT22;27562;47.524;12.404;2022-08-01T10:57:10;28.00;72.90
41882;DHT22;27562;47.524;12.404;2022-08-01T10:59:58;28.10;73.00
41882;DHT22;27562;47.524;12.404;2022-08-01T11:05:00;28.10;71.90
41882;DHT22;27562;47.524;12.404;2022-08-01T11:07:43;28.20;70.70
41882;DHT22;27562;47.524;12.404;2022-08-01T11:10:13;28.30;69.20
41882;DHT22;27562;47.524;12.404;2022-08-01T11:12:40;28.40;73.30
41882;DHT22;27562;47.524;12.404;2022-08-01T11:17:35;28.60;70.90
41882;DHT22;27562;47.524;12.404;2022-08-01T11:20:05;28.60;69.00
41882;DHT22;27562;47.524;12.404;2022-08-01T11:22:30;28.60;69.90
41882;DHT22;27562;47.524;12.404;2022-08-01T11:24:56;28.60;66.30
41882;DHT22;27562;47.524;12.404;2022-08-01T11:27:23;28.50;71.00
41882;DHT22;27562;47.524;12.404;2022-08-01T11:32:33;28.40;71.50
41882;DHT22;27562;47.524;12.404;2022-08-01T11:34:59;28.40;71.20
41882;DHT22;27562;47.524;12.404;2022-08-01T11:37:28;28.40;71.30
41882;DHT22;27562;47.524;12.404;2022-08-01T11:42:38;28.50;71.10
41882;DHT22;27562;47.524;12.404;2022-08-01T11:45:04;28.60;71.40
41882;DHT22;27562;47.524;12.404;2022-08-01T11:53:05;28.60;69.90
41882;DHT22;27562;47.524;12.404;2022-08-01T11:55:31;28.60;67.80
41882;DHT22;27562;47.524;12.404;2022-08-01T11:58:01;28.60;67.70
41882;DHT22;27562;47.524;12.404;2022-08-01T12:00:26;28.50;68.90
41882;DHT22;27562;47.524;12.404;2022-08-01T12:05:24;28.50;66.80
41882;DHT22;27562;47.524;12.404;2022-08-01T12:07:50;28.60;65.80
41882;DHT22;27562;47.524;12.404;2022-08-01T12:10:16;28.70;66.20
41882;DHT22;27562;47.524;12.404;2022-08-01T12:12:46;28.70;68.00
41882;DHT22;27562;47.524;12.404;2022-08-01T12:15:12;28.70;67.00
41882;DHT22;27562;47.524;12.404;2022-08-01T12:17:39;28.70;66.40
41882;DHT22;27562;47.524;12.404;2022-08-01T12:20:06;28.50;64.30
41882;DHT22;27562;47.524;12.404;2022-08-01T12:22:32;28.50;67.60
41882;DHT22;27562;47.524;12.404;2022-08-01T12:25:04;28.60;65.80
41882;DHT22;27562;47.524;12.404;2022-08-01T12:27:30;28.80;65.20
41882;DHT22;27562;47.524;12.404;2022-08-01T12:29:57;28.90;65.60
41882;DHT22;27562;47.524;12.404;2022-08-01T12:32:30;29.00;64.70
41882;DHT22;27562;47.524;12.404;2022-08-01T12:34:57;29.20;63.80
41882;DHT22;27562;47.524;12.404;2022-08-01T12:37:23;29.30;65.90
41882;DHT22;27562;47.524;12.404;2022-08-01T12:39:48;29.20;60.50
41882;DHT22;27562;47.524;12.404;2022-08-01T12:42:14;29.00;63.00
41882;DHT22;27562;47.524;12.404;2022-08-01T12:44:40;28.70;63.20
41882;DHT22;27562;47.524;12.404;2022-08-01T12:47:07;28.40;63.20
41882;DHT22;27562;47.524;12.404;2022-08-01T12:49:36;28.30;64.50
41882;DHT22;27562;47.524;12.404;2022-08-01T12:52:03;28.40;65.60
41882;DHT22;27562;47.524;12.404;2022-08-01T12:54:28;28.50;64.80
41882;DHT22;27562;47.524;12.404;2022-08-01T12:56:54;28.50;64.30
41882;DHT22;27562;47.524;12.404;2022-08-01T12:59:24;28.60;64.80
41882;DHT22;27562;47.524;12.404;2022-08-01T13:01:53;28.60;62.00
41882;DHT22;27562;47.524;12.404;2022-08-01T13:04:20;28.30;61.80
41882;DHT22;27562;47.524;12.404;2022-08-01T13:06:46;28.00;61.00
41882;DHT22;27562;47.524;12.404;2022-08-01T13:09:12;27.90;63.00
41882;DHT22;27562;47.524;12.404;2022-08-01T13:11:41;27.80;60.70
41882;DHT22;27562;47.524;12.404;2022-08-01T13:14:08;27.60;61.60
41882;DHT22;27562;47.524;12.404;2022-08-01T13:16:44;27.50;64.70
41882;DHT22;27562;47.524;12.404;2022-08-01T13:19:10;27.60;63.40
41882;DHT22;27562;47.524;12.404;2022-08-01T13:21:36;27.60;62.80
41882;DHT22;27562;47.524;12.404;2022-08-01T13:29:06;27.30;63.30
41882;DHT22;27562;47.524;12.404;2022-08-01T13:31:33;27.30;62.50
41882;DHT22;27562;47.524;12.404;2022-08-01T13:33:59;27.30;61.70
41882;DHT22;27562;47.524;12.404;2022-08-01T13:36:24;27.30;63.10
41882;DHT22;27562;47.524;12.404;2022-08-01T13:38:52;27.30;63.40
41882;DHT22;27562;47.524;12.404;2022-08-01T13:41:36;27.30;60.80
41882;DHT22;27562;47.524;12.404;2022-08-01T13:44:02;27.30;64.50
41882;DHT22;27562;47.524;12.404;2022-08-01T13:46:28;27.40;65.90
41882;DHT22;27562;47.524;12.404;2022-08-01T13:48:53;27.40;61.00
41882;DHT22;27562;47.524;12.404;2022-08-01T13:51:19;27.40;61.80
41882;DHT22;27562;47.524;12.404;2022-08-01T13:53:44;27.60;59.80
41882;DHT22;27562;47.524;12.404;2022-08-01T13:56:10;27.80;60.00
41882;DHT22;27562;47.524;12.404;2022-08-01T13:58:36;27.60;61.00
41882;DHT22;27562;47.524;12.404;2022-08-01T14:01:02;27.30;60.30
41882;DHT22;27562;47.524;12.404;2022-08-01T14:03:27;27.10;63.00
41882;DHT22;27562;47.524;12.404;2022-08-01T14:05:53;27.00;61.20
41882;DHT22;27562;47.524;12.404;2022-08-01T14:08:19;26.90;60.10
41882;DHT22;27562;47.524;12.404;2022-08-01T14:10:44;26.90;62.30
41882;DHT22;27562;47.524;12.404;2022-08-01T14:13:10;27.00;60.20
41882;DHT22;27562;47.524;12.404;2022-08-01T14:15:36;27.10;61.70
41882;DHT22;27562;47.524;12.404;2022-08-01T14:18:02;27.00;60.20
41882;DHT22;27562;47.524;12.404;2022-08-01T14:20:27;27.00;62.10
41882;DHT22;27562;47.524;12.404;2022-08-01T14:22:53;26.90;61.20
41882;DHT22;27562;47.524;12.404;2022-08-01T14:25:19;26.80;61.40
41882;DHT22;27562;47.524;12.404;2022-08-01T14:27:44;26.60;61.50
41882;DHT22;27562;47.524;12.404;2022-08-01T14:30:10;26.70;62.50
41882;DHT22;27562;47.524;12.404;2022-08-01T14:32:36;26.70;62.80
41882;DHT22;27562;47.524;12.404;2022-08-01T14:35:04;26.80;63.40
41882;DHT22;27562;47.524;12.404;2022-08-01T14:37:30;26.80;60.90
41882;DHT22;27562;47.524;12.404;2022-08-01T14:39:56;26.80;60.10
41882;DHT22;27562;47.524;12.404;2022-08-01T14:42:22;26.60;61.00
41882;DHT22;27562;47.524;12.404;2022-08-01T14:44:47;26.60;61.90
41882;DHT22;27562;47.524;12.404;2022-08-01T14:47:13;26.60;61.50
41882;DHT22;27562;47.524;12.404;2022-08-01T14:49:38;26.60;61.90
41882;DHT22;27562;47.524;12.404;2022-08-01T14:52:04;26.50;60.80
41882;DHT22;27562;47.524;12.404;2022-08-01T14:54:29;26.40;61.60
41882;DHT22;27562;47.524;12.404;2022-08-01T14:56:55;26.20;62.10
41882;DHT22;27562;47.524;12.404;2022-08-01T14:59:20;26.20;62.90
41882;DHT22;27562;47.524;12.404;2022-08-01T15:01:46;26.10;63.60
41882;DHT22;27562;47.524;12.404;2022-08-01T15:04:12;26.10;63.20
41882;DHT22;27562;47.524;12.404;2022-08-01T15:06:38;26.10;62.10
41882;DHT22;27562;47.524;12.404;2022-08-01T15:09:03;26.10;63.00
41882;DHT22;27562;47.524;12.404;2022-08-01T15:11:29;26.10;63.70
41882;DHT22;27562;47.524;12.404;2022-08-01T15:13:54;26.10;62.50
41882;DHT22;27562;47.524;12.404;2022-08-01T15:16:40;26.20;61.40
41882;DHT22;27562;47.524;12.404;2022-08-01T15:19:05;26.20;62.70
41882;DHT22;27562;47.524;12.404;2022-08-01T15:21:31;26.10;62.20
41882;DHT22;27562;47.524;12.404;2022-08-01T15:23:57;26.00;63.20
41882;DHT22;27562;47.524;12.404;2022-08-01T15:26:22;26.00;64.60
41882;DHT22;27562;47.524;12.404;2022-08-01T15:28:48;26.00;63.70
41882;DHT22;27562;47.524;12.404;2022-08-01T15:31:13;26.00;63.00
41882;DHT22;27562;47.524;12.404;2022-08-01T15:33:39;26.10;63.00
41882;DHT22;27562;47.524;12.404;2022-08-01T15:36:05;26.20;62.90
41882;DHT22;27562;47.524;12.404;2022-08-01T15:38:30;26.20;61.10
41882;DHT22;27562;47.524;12.404;2022-08-01T15:40:56;26.20;63.10
41882;DHT22;27562;47.524;12.404;2022-08-01T15:43:21;26.20;63.30
41882;DHT22;27562;47.524;12.404;2022-08-01T15:45:47;26.20;64.10